createdAt,value
2023-04-18T00:01:50.657Z,100897.51
2023-04-18T00:06:57.435Z,100899.39
2023-04-18T00:12:05.020Z,100899.75
2023-04-18T00:17:13.387Z,100898.71
2023-04-18T00:22:22.533Z,100895.98
2023-04-18T00:27:29.853Z,100898.20
2023-04-18T00:32:36.691Z,100899.92
2023-04-18T00:37:43.650Z,100900.48
2023-04-18T00:42:50.658Z,100898.59
2023-04-18T00:47:57.870Z,100895.86
2023-04-18T00:53:05.037Z,100892.13
2023-04-18T00:58:12.311Z,100890.77
2023-04-18T01:03:19.958Z,100884.47
2023-04-18T01:08:28.007Z,100881.91
2023-04-18T01:13:37.736Z,100882.10
2023-04-18T01:18:44.926Z,100882.48
2023-04-18T01:23:52.428Z,100884.40
2023-04-18T01:28:59.411Z,100884.08
2023-04-18T01:34:07.377Z,100884.95
2023-04-18T01:39:14.816Z,100882.38
2023-04-18T01:44:21.702Z,100881.02
2023-04-18T01:49:28.559Z,100883.09
2023-04-18T01:54:35.369Z,100885.52
2023-04-18T01:59:43.013Z,100879.53
2023-04-18T02:04:49.886Z,100880.05
2023-04-18T02:09:56.966Z,100879.72
2023-04-18T02:15:04.155Z,100878.04
2023-04-18T02:20:15.841Z,100882.31
2023-04-18T02:25:23.862Z,100878.06
2023-04-18T02:30:30.756Z,100880.64
2023-04-18T02:35:38.499Z,100879.61
2023-04-18T02:40:45.815Z,100879.97
2023-04-18T02:45:52.832Z,100882.02
2023-04-18T02:51:05.755Z,100883.57
2023-04-18T02:56:16.914Z,100882.90
2023-04-18T03:01:47.002Z,100890.27
2023-04-18T03:06:59.204Z,100888.58
2023-04-18T03:12:06.990Z,100886.03
2023-04-18T03:17:15.277Z,100887.76
2023-04-18T03:22:26.904Z,100885.37
2023-04-18T03:27:36.158Z,100879.90
2023-04-18T03:32:43.549Z,100878.70
2023-04-18T03:37:50.536Z,100884.36
2023-04-18T03:43:23.339Z,100884.53
2023-04-18T03:48:35.812Z,100883.49
2023-04-18T03:53:43.627Z,100883.16
2023-04-18T03:58:50.637Z,100887.45
2023-04-18T04:03:58.497Z,100883.69
2023-04-18T04:09:06.067Z,100887.80
2023-04-18T04:14:13.500Z,100897.23
2023-04-18T04:19:24.082Z,100896.91
2023-04-18T04:24:38.595Z,100905.32
2023-04-18T04:29:46.337Z,100906.18
2023-04-18T04:34:53.725Z,100908.05
2023-04-18T04:40:02.801Z,100909.08
2023-04-18T04:45:36.423Z,100914.88
2023-04-18T04:50:43.665Z,100918.64
2023-04-18T04:55:52.247Z,100926.35
2023-04-18T05:00:59.067Z,100925.11
2023-04-18T05:06:06.830Z,100927.02
2023-04-18T05:11:13.837Z,100933.17
2023-04-18T05:16:20.998Z,100935.05
2023-04-18T05:21:28.836Z,100937.42
2023-04-18T05:26:35.824Z,100935.36
2023-04-18T05:31:42.725Z,100940.31
2023-04-18T05:36:50.617Z,100941.85
2023-04-18T05:41:58.417Z,100947.83
2023-04-18T05:47:06.809Z,100949.54
2023-04-18T05:52:13.729Z,100946.41
2023-04-18T06:03:15.145Z,100943.76
2023-04-18T06:08:22.199Z,100952.27
2023-04-18T06:13:29.964Z,100954.50
2023-04-18T06:18:37.022Z,100957.06
2023-04-18T06:23:44.093Z,100962.19
2023-04-18T06:28:51.011Z,100967.14
2023-04-18T06:33:57.993Z,100970.36
2023-04-18T06:39:05.035Z,100973.73
2023-04-18T06:44:11.956Z,100969.33
2023-04-18T06:49:19.701Z,100972.28
2023-04-18T06:54:27.103Z,100977.02
2023-04-18T06:59:35.661Z,100984.46
2023-04-18T07:04:42.711Z,100986.49
2023-04-18T07:09:50.328Z,100995.08
2023-04-18T07:14:57.909Z,101000.38
2023-04-18T07:20:05.083Z,100994.99
2023-04-18T07:25:12.579Z,100999.08
2023-04-18T07:30:20.276Z,101001.63
2023-04-18T07:35:27.258Z,101004.39
2023-04-18T07:40:34.242Z,101004.06
2023-04-18T07:45:43.386Z,101009.79
2023-04-18T07:50:50.616Z,101016.27
2023-04-18T07:55:58.655Z,101019.02
2023-04-18T08:01:06.307Z,101025.30
2023-04-18T08:06:13.160Z,101028.85
2023-04-18T08:11:20.227Z,101030.59
2023-04-18T08:16:27.455Z,101029.21
2023-04-18T08:21:34.849Z,101029.70
2023-04-18T08:26:41.730Z,101031.15
2023-04-18T08:31:49.061Z,101034.20
2023-04-18T08:36:56.685Z,101036.69
2023-04-18T08:42:04.892Z,101045.00
2023-04-18T08:47:12.796Z,101049.45
2023-04-18T08:52:19.802Z,101050.59
2023-04-18T08:57:27.770Z,101050.33
2023-04-18T09:02:43.079Z,101053.06
2023-04-18T09:07:51.852Z,101057.37
2023-04-18T09:13:36.425Z,101054.42
2023-04-18T09:19:05.169Z,101056.77
2023-04-18T09:24:24.555Z,101053.39
2023-04-18T09:29:50.351Z,101052.83
2023-04-18T09:35:01.399Z,101046.73
2023-04-18T09:40:19.842Z,101046.75
2023-04-18T09:45:27.828Z,101051.69
2023-04-18T09:50:38.056Z,101052.55
2023-04-18T09:55:45.271Z,101049.70
2023-04-18T10:00:54.639Z,101043.46
2023-04-18T10:06:01.783Z,101044.58
2023-04-18T10:11:08.773Z,101044.72
2023-04-18T10:16:17.014Z,101045.03
2023-04-18T10:21:24.033Z,101043.94
2023-04-18T10:26:50.436Z,101040.77
2023-04-18T10:31:57.719Z,101037.89
2023-04-18T10:37:08.276Z,101038.08
2023-04-18T10:42:15.163Z,101039.42
2023-04-18T10:47:25.158Z,101035.42
2023-04-18T10:52:32.697Z,101033.55
2023-04-18T10:57:45.633Z,101025.75
2023-04-18T11:02:56.512Z,101023.67
2023-04-18T11:08:02.114Z,101031.52
2023-04-18T11:13:09.201Z,101032.95
2023-04-18T11:18:16.445Z,101029.38
2023-04-18T11:23:25.490Z,101028.58
2023-04-18T11:28:33.043Z,101031.93
2023-04-18T11:33:40.871Z,101031.27
2023-04-18T11:38:48.080Z,101025.91
2023-04-18T11:43:55.146Z,101018.97
2023-04-18T11:49:02.230Z,101017.98
2023-04-18T11:54:29.397Z,101014.31
2023-04-18T11:59:37.301Z,101015.27
2023-04-18T12:04:55.413Z,101015.84
2023-04-18T12:10:03.104Z,101017.87
2023-04-18T12:15:17.000Z,101017.66
2023-04-18T12:20:40.000Z,101015.16
2023-04-18T12:25:59.260Z,101013.67
2023-04-18T12:31:07.586Z,101007.02
2023-04-18T12:36:14.604Z,101005.04
2023-04-18T12:41:21.520Z,101002.30
2023-04-18T12:46:28.660Z,101005.50
2023-04-18T12:51:35.635Z,101002.91
2023-04-18T12:56:42.543Z,101003.38
2023-04-18T13:01:49.533Z,100997.17
2023-04-18T13:06:56.489Z,100997.73
2023-04-18T13:12:04.305Z,100996.09
2023-04-18T13:17:11.267Z,100994.85
2023-04-18T13:22:18.102Z,100990.27
2023-04-18T13:27:25.002Z,100987.40
2023-04-18T13:32:32.469Z,100989.59
2023-04-18T13:37:39.764Z,100989.70
2023-04-18T13:42:59.286Z,100990.99
2023-04-18T13:48:07.366Z,100989.34
2023-04-18T13:53:16.305Z,100989.58
2023-04-18T13:58:23.154Z,100988.95
2023-04-18T14:03:30.510Z,100984.70
2023-04-18T14:08:37.583Z,100984.22
2023-04-18T14:13:44.709Z,100986.29
2023-04-18T14:18:51.813Z,100983.80
2023-04-18T14:23:58.910Z,100985.15
2023-04-18T14:29:05.770Z,100987.43
2023-04-18T14:34:12.889Z,100980.98
2023-04-18T14:39:19.758Z,100980.58
2023-04-18T14:44:26.704Z,100974.93
2023-04-18T14:49:34.410Z,100970.56
2023-04-18T14:54:41.403Z,100970.30
2023-04-18T14:59:48.336Z,100960.47
2023-04-18T15:04:55.468Z,100955.63
2023-04-18T15:10:02.363Z,100959.73
2023-04-18T15:15:11.619Z,100963.55
2023-04-18T15:20:18.837Z,100968.17
2023-04-18T15:25:26.149Z,100970.89
2023-04-18T15:30:33.083Z,100968.02
2023-04-18T15:35:40.104Z,100966.23
2023-04-18T15:40:47.008Z,100968.30
2023-04-18T15:45:53.896Z,100966.10
2023-04-18T15:51:00.920Z,100967.82
2023-04-18T15:56:08.186Z,100963.65
2023-04-18T16:01:16.156Z,100962.30
2023-04-18T16:06:23.627Z,100965.69
2023-04-18T16:11:30.495Z,100969.32
2023-04-18T16:16:37.292Z,100969.77
2023-04-18T16:21:44.115Z,100968.95
2023-04-18T16:26:52.234Z,100971.37
2023-04-18T16:31:59.153Z,100967.98
2023-04-18T16:37:06.041Z,100964.75
2023-04-18T16:42:15.358Z,100966.58
2023-04-18T16:47:22.727Z,100967.78
2023-04-18T16:52:29.578Z,100968.04
2023-04-18T16:57:36.408Z,100966.30
2023-04-18T17:02:43.832Z,100971.43
2023-04-18T17:07:51.731Z,100971.05
2023-04-18T17:12:59.269Z,100967.00
2023-04-18T17:18:06.508Z,100975.33
2023-04-18T17:23:13.507Z,100978.29
2023-04-18T17:28:21.357Z,100980.42
2023-04-18T17:33:28.294Z,100983.59
2023-04-18T17:38:35.147Z,100984.83
2023-04-18T17:43:42.238Z,100984.95
2023-04-18T17:48:49.717Z,100985.83
2023-04-18T17:53:56.486Z,100985.16
2023-04-18T17:59:03.343Z,100986.16
2023-04-18T18:04:10.785Z,100990.65
2023-04-18T18:09:17.704Z,100989.05
2023-04-18T18:14:24.747Z,100991.08
2023-04-18T18:19:31.806Z,100993.43
2023-04-18T18:24:38.903Z,100994.73
2023-04-18T18:29:45.906Z,100991.02
2023-04-18T18:34:52.827Z,100991.31
2023-04-18T18:40:00.004Z,100991.59
2023-04-18T18:45:08.496Z,100987.35
2023-04-18T18:50:15.683Z,100988.96
2023-04-18T18:55:22.726Z,100986.63
2023-04-18T19:00:29.749Z,100986.53
2023-04-18T19:05:36.815Z,100982.11
2023-04-18T19:10:44.588Z,100975.11
2023-04-18T19:15:51.618Z,100980.64
2023-04-18T19:20:58.603Z,100975.73
2023-04-18T19:26:05.527Z,100974.23
2023-04-18T19:31:12.671Z,100973.61
2023-04-18T19:36:19.986Z,100972.80
2023-04-18T19:41:27.034Z,100969.70
2023-04-18T19:46:34.214Z,100969.09
2023-04-18T19:51:41.484Z,100963.45
2023-04-18T19:56:48.357Z,100961.07
2023-04-18T20:01:55.573Z,100957.85
2023-04-18T20:07:03.793Z,100958.23
2023-04-18T20:12:10.833Z,100957.40
2023-04-18T20:17:18.054Z,100953.85
2023-04-18T20:22:26.770Z,100951.15
2023-04-18T20:27:33.891Z,100946.05
2023-04-18T20:32:40.817Z,100943.38
2023-04-18T20:37:49.973Z,100943.30
2023-04-18T20:42:58.865Z,100941.48
2023-04-18T20:48:06.585Z,100939.14
2023-04-18T20:53:13.519Z,100939.41
2023-04-18T20:58:20.732Z,100935.52
2023-04-18T21:03:27.670Z,100931.46
2023-04-18T21:08:37.952Z,100932.07
2023-04-18T21:13:45.031Z,100927.55
2023-04-18T21:18:52.002Z,100924.02
2023-04-18T21:23:58.968Z,100919.99
2023-04-18T21:29:06.660Z,100918.04
2023-04-18T21:34:13.985Z,100912.45
2023-04-18T21:39:21.150Z,100910.07
2023-04-18T21:44:28.088Z,100907.04
2023-04-18T21:49:35.118Z,100900.24
2023-04-18T21:54:42.199Z,100900.32
2023-04-18T21:59:49.137Z,100901.46
2023-04-18T22:04:56.296Z,100895.31
2023-04-18T22:10:03.948Z,100890.73
2023-04-18T22:15:12.364Z,100885.65
2023-04-18T22:20:19.371Z,100880.76
2023-04-18T22:25:26.327Z,100875.02
2023-04-18T22:30:33.353Z,100870.83
2023-04-18T22:35:40.440Z,100870.23
2023-04-18T22:40:47.454Z,100864.29
2023-04-18T22:45:54.393Z,100855.45
2023-04-18T22:51:01.823Z,100848.84
2023-04-18T22:56:09.472Z,100846.84
2023-04-18T23:01:16.537Z,100846.41
2023-04-18T23:06:23.424Z,100842.17
2023-04-18T23:11:30.492Z,100837.10
2023-04-18T23:16:37.396Z,100827.39
2023-04-18T23:21:44.387Z,100815.29
2023-04-18T23:26:51.380Z,100809.54
2023-04-18T23:31:58.424Z,100804.83
2023-04-18T23:37:05.408Z,100800.64
2023-04-18T23:42:12.249Z,100794.53
2023-04-18T23:47:19.213Z,100787.42
2023-04-18T23:52:26.411Z,100784.58
2023-04-18T23:57:33.389Z,100777.65
